sensor_id;sensor_type;location;lat;lon;timestamp;temperature;humidity
16513;DHT22;8369;48.030;11.598;2023-04-25T00:01:53;8.10;99.90
16513;DHT22;8369;48.030;11.598;2023-04-25T00:04:19;8.20;99.90
16513;DHT22;8369;48.030;11.598;2023-04-25T00:06:50;8.20;99.90
16513;DHT22;8369;48.030;11.598;2023-04-25T00:09:18;8.20;99.90
16513;DHT22;8369;48.030;11.598;2023-04-25T00:11:44;8.20;99.90
16513;DHT22;8369;48.030;11.598;2023-04-25T00:14:10;8.20;99.90
16513;DHT22;8369;48.030;11.598;2023-04-25T00:16:36;8.20;99.90
16513;DHT22;8369;48.030;11.598;2023-04-25T00:19:02;8.20;99.90
16513;DHT22;8369;48.030;11.598;2023-04-25T00:21:29;8.20;99.90
16513;DHT22;8369;48.030;11.598;2023-04-25T00:23:56;8.20;99.90
16513;DHT22;8369;48.030;11.598;2023-04-25T00:26:23;8.20;99.90
16513;DHT22;8369;48.030;11.598;2023-04-25T00:28:49;8.20;99.90
16513;DHT22;8369;48.030;11.598;2023-04-25T00:31:15;8.30;99.90
16513;DHT22;8369;48.030;11.598;2023-04-25T00:33:42;8.30;99.90
16513;DHT22;8369;48.030;11.598;2023-04-25T00:36:08;8.30;99.90
16513;DHT22;8369;48.030;11.598;2023-04-25T00:38:35;8.30;99.90
16513;DHT22;8369;48.030;11.598;2023-04-25T00:41:01;8.30;99.90
16513;DHT22;8369;48.030;11.598;2023-04-25T00:43:28;8.40;99.90
16513;DHT22;8369;48.030;11.598;2023-04-25T00:45:57;8.40;99.90
16513;DHT22;8369;48.030;11.598;2023-04-25T00:48:23;8.40;99.90
16513;DHT22;8369;48.030;11.598;2023-04-25T00:50:54;8.40;99.90
16513;DHT22;8369;48.030;11.598;2023-04-25T00:53:27;8.40;99.90
16513;DHT22;8369;48.030;11.598;2023-04-25T00:55:54;8.40;99.90
16513;DHT22;8369;48.030;11.598;2023-04-25T00:58:21;8.50;99.90
16513;DHT22;8369;48.030;11.598;2023-04-25T01:00:49;8.50;99.90
16513;DHT22;8369;48.030;11.598;2023-04-25T01:03:18;8.50;99.90
16513;DHT22;8369;48.030;11.598;2023-04-25T01:05:47;8.50;99.90
16513;DHT22;8369;48.030;11.598;2023-04-25T01:08:14;8.50;99.90
16513;DHT22;8369;48.030;11.598;2023-04-25T01:10:41;8.50;99.90
16513;DHT22;8369;48.030;11.598;2023-04-25T01:13:08;8.60;99.90
16513;DHT22;8369;48.030;11.598;2023-04-25T01:15:35;8.60;99.90
16513;DHT22;8369;48.030;11.598;2023-04-25T01:18:03;8.60;99.90
16513;DHT22;8369;48.030;11.598;2023-04-25T01:20:32;8.60;99.90
16513;DHT22;8369;48.030;11.598;2023-04-25T01:23:00;8.60;99.90
16513;DHT22;8369;48.030;11.598;2023-04-25T01:25:27;8.60;99.90
16513;DHT22;8369;48.030;11.598;2023-04-25T01:27:54;8.60;99.90
16513;DHT22;8369;48.030;11.598;2023-04-25T01:30:21;8.70;99.90
16513;DHT22;8369;48.030;11.598;2023-04-25T01:32:48;8.70;99.90
16513;DHT22;8369;48.030;11.598;2023-04-25T01:35:16;8.70;99.90
16513;DHT22;8369;48.030;11.598;2023-04-25T01:37:42;8.70;99.90
16513;DHT22;8369;48.030;11.598;2023-04-25T01:40:10;8.70;99.90
16513;DHT22;8369;48.030;11.598;2023-04-25T01:42:39;8.80;99.90
16513;DHT22;8369;48.030;11.598;2023-04-25T01:45:07;8.70;99.90
16513;DHT22;8369;48.030;11.598;2023-04-25T01:47:34;8.70;99.90
16513;DHT22;8369;48.030;11.598;2023-04-25T01:50:05;8.70;99.90
16513;DHT22;8369;48.030;11.598;2023-04-25T01:52:33;8.70;99.90
16513;DHT22;8369;48.030;11.598;2023-04-25T01:55:01;8.70;99.90
16513;DHT22;8369;48.030;11.598;2023-04-25T01:57:30;8.60;99.90
16513;DHT22;8369;48.030;11.598;2023-04-25T02:00:00;8.60;99.90
16513;DHT22;8369;48.030;11.598;2023-04-25T02:02:27;8.50;99.90
16513;DHT22;8369;48.030;11.598;2023-04-25T02:04:53;8.50;99.90
16513;DHT22;8369;48.030;11.598;2023-04-25T02:07:20;8.40;99.90
16513;DHT22;8369;48.030;11.598;2023-04-25T02:10:00;8.40;99.90
16513;DHT22;8369;48.030;11.598;2023-04-25T02:12:27;8.30;99.90
16513;DHT22;8369;48.030;11.598;2023-04-25T02:14:54;8.30;99.90
16513;DHT22;8369;48.030;11.598;2023-04-25T02:17:21;8.20;99.90
16513;DHT22;8369;48.030;11.598;2023-04-25T02:19:48;8.20;99.90
16513;DHT22;8369;48.030;11.598;2023-04-25T02:22:18;8.10;99.90
16513;DHT22;8369;48.030;11.598;2023-04-25T02:24:45;8.00;99.90
16513;DHT22;8369;48.030;11.598;2023-04-25T02:27:11;8.00;99.90
16513;DHT22;8369;48.030;11.598;2023-04-25T02:29:38;8.00;99.90
16513;DHT22;8369;48.030;11.598;2023-04-25T02:32:04;7.90;99.90
16513;DHT22;8369;48.030;11.598;2023-04-25T02:34:31;7.90;99.90
16513;DHT22;8369;48.030;11.598;2023-04-25T02:36:58;7.90;99.90
16513;DHT22;8369;48.030;11.598;2023-04-25T02:39:25;7.90;99.90
16513;DHT22;8369;48.030;11.598;2023-04-25T02:41:53;7.90;99.90
16513;DHT22;8369;48.030;11.598;2023-04-25T02:44:22;7.90;99.90
16513;DHT22;8369;48.030;11.598;2023-04-25T02:46:48;7.90;99.90
16513;DHT22;8369;48.030;11.598;2023-04-25T02:49:14;7.80;99.90
16513;DHT22;8369;48.030;11.598;2023-04-25T02:51:41;7.80;99.90
16513;DHT22;8369;48.030;11.598;2023-04-25T02:54:07;7.80;99.90
16513;DHT22;8369;48.030;11.598;2023-04-25T02:56:33;7.80;99.90
16513;DHT22;8369;48.030;11.598;2023-04-25T02:59:00;7.80;99.90
16513;DHT22;8369;48.030;11.598;2023-04-25T03:01:29;7.80;99.90
16513;DHT22;8369;48.030;11.598;2023-04-25T03:03:55;7.70;99.90
16513;DHT22;8369;48.030;11.598;2023-04-25T03:06:21;7.70;99.90
16513;DHT22;8369;48.030;11.598;2023-04-25T03:08:50;7.70;99.90
16513;DHT22;8369;48.030;11.598;2023-04-25T03:11:17;7.70;99.90
16513;DHT22;8369;48.030;11.598;2023-04-25T03:13:45;7.70;99.90
16513;DHT22;8369;48.030;11.598;2023-04-25T03:16:12;7.70;99.90
16513;DHT22;8369;48.030;11.598;2023-04-25T03:18:38;7.80;99.90
16513;DHT22;8369;48.030;11.598;2023-04-25T03:21:04;7.70;99.90
16513;DHT22;8369;48.030;11.598;2023-04-25T03:23:31;7.70;99.90
16513;DHT22;8369;48.030;11.598;2023-04-25T03:25:57;7.70;99.90
16513;DHT22;8369;48.030;11.598;2023-04-25T03:28:23;7.70;99.90
16513;DHT22;8369;48.030;11.598;2023-04-25T03:30:49;7.60;99.90
16513;DHT22;8369;48.030;11.598;2023-04-25T03:33:15;7.60;99.90
16513;DHT22;8369;48.030;11.598;2023-04-25T03:35:41;7.70;99.90
16513;DHT22;8369;48.030;11.598;2023-04-25T03:38:08;7.70;99.90
16513;DHT22;8369;48.030;11.598;2023-04-25T03:40:34;7.50;99.90
16513;DHT22;8369;48.030;11.598;2023-04-25T03:43:00;7.50;99.90
16513;DHT22;8369;48.030;11.598;2023-04-25T03:45:26;7.50;99.90
16513;DHT22;8369;48.030;11.598;2023-04-25T03:47:52;7.40;99.90
16513;DHT22;8369;48.030;11.598;2023-04-25T03:50:20;7.50;99.90
16513;DHT22;8369;48.030;11.598;2023-04-25T03:52:46;7.40;99.90
16513;DHT22;8369;48.030;11.598;2023-04-25T03:55:12;7.40;99.90
16513;DHT22;8369;48.030;11.598;2023-04-25T03:57:38;7.40;99.90
16513;DHT22;8369;48.030;11.598;2023-04-25T04:00:04;7.30;99.90
16513;DHT22;8369;48.030;11.598;2023-04-25T04:02:32;7.30;99.90
16513;DHT22;8369;48.030;11.598;2023-04-25T04:05:00;7.30;99.90
16513;DHT22;8369;48.030;11.598;2023-04-25T04:07:27;7.40;99.90
16513;DHT22;8369;48.030;11.598;2023-04-25T04:09:53;7.40;99.90
16513;DHT22;8369;48.030;11.598;2023-04-25T04:12:20;7.40;99.90
16513;DHT22;8369;48.030;11.598;2023-04-25T04:14:46;7.40;99.90
16513;DHT22;8369;48.030;11.598;2023-04-25T04:17:13;7.40;99.90
16513;DHT22;8369;48.030;11.598;2023-04-25T04:19:39;7.40;99.90
16513;DHT22;8369;48.030;11.598;2023-04-25T04:22:06;7.30;99.90
16513;DHT22;8369;48.030;11.598;2023-04-25T04:24:32;7.30;99.90
16513;DHT22;8369;48.030;11.598;2023-04-25T04:26:58;7.30;99.90
16513;DHT22;8369;48.030;11.598;2023-04-25T04:29:25;7.30;99.90
16513;DHT22;8369;48.030;11.598;2023-04-25T04:31:51;7.30;99.90
16513;DHT22;8369;48.030;11.598;2023-04-25T04:34:18;7.30;99.90
16513;DHT22;8369;48.030;11.598;2023-04-25T04:36:45;7.40;99.90
16513;DHT22;8369;48.030;11.598;2023-04-25T04:39:13;7.40;99.90
16513;DHT22;8369;48.030;11.598;2023-04-25T04:41:39;7.30;99.90
16513;DHT22;8369;48.030;11.598;2023-04-25T04:44:06;7.40;99.90
16513;DHT22;8369;48.030;11.598;2023-04-25T04:46:33;7.30;99.90
16513;DHT22;8369;48.030;11.598;2023-04-25T04:49:11;7.40;99.90
16513;DHT22;8369;48.030;11.598;2023-04-25T04:51:38;7.40;99.90
16513;DHT22;8369;48.030;11.598;2023-04-25T04:54:04;7.40;99.90
16513;DHT22;8369;48.030;11.598;2023-04-25T04:56:30;7.50;99.90
16513;DHT22;8369;48.030;11.598;2023-04-25T04:58:57;7.50;99.90
16513;DHT22;8369;48.030;11.598;2023-04-25T05:01:23;7.50;99.90
16513;DHT22;8369;48.030;11.598;2023-04-25T05:03:50;7.50;99.90
16513;DHT22;8369;48.030;11.598;2023-04-25T05:06:18;7.50;99.90
16513;DHT22;8369;48.030;11.598;2023-04-25T05:08:45;7.50;99.90
16513;DHT22;8369;48.030;11.598;2023-04-25T05:11:11;7.50;99.90
16513;DHT22;8369;48.030;11.598;2023-04-25T05:13:43;7.50;99.90
16513;DHT22;8369;48.030;11.598;2023-04-25T05:16:10;7.60;99.90
16513;DHT22;8369;48.030;11.598;2023-04-25T05:18:38;7.60;99.90
16513;DHT22;8369;48.030;11.598;2023-04-25T05:21:04;7.60;99.90
16513;DHT22;8369;48.030;11.598;2023-04-25T05:23:32;7.70;99.90
16513;DHT22;8369;48.030;11.598;2023-04-25T05:25:58;7.80;99.90
16513;DHT22;8369;48.030;11.598;2023-04-25T05:28:25;7.80;99.90
16513;DHT22;8369;48.030;11.598;2023-04-25T05:30:55;7.80;99.90
16513;DHT22;8369;48.030;11.598;2023-04-25T05:37:32;7.90;99.90
16513;DHT22;8369;48.030;11.598;2023-04-25T05:40:05;8.00;99.90
16513;DHT22;8369;48.030;11.598;2023-04-25T05:42:41;8.10;99.90
16513;DHT22;8369;48.030;11.598;2023-04-25T06:01:06;8.30;99.90
16513;DHT22;8369;48.030;11.598;2023-04-25T06:03:39;8.40;99.90
16513;DHT22;8369;48.030;11.598;2023-04-25T06:06:30;8.40;99.90
16513;DHT22;8369;48.030;11.598;2023-04-25T06:11:52;8.70;99.90
16513;DHT22;8369;48.030;11.598;2023-04-25T06:14:20;8.80;99.90
16513;DHT22;8369;48.030;11.598;2023-04-25T06:16:49;9.00;99.90
16513;DHT22;8369;48.030;11.598;2023-04-25T06:19:15;9.00;99.90
16513;DHT22;8369;48.030;11.598;2023-04-25T06:21:42;9.00;99.90
16513;DHT22;8369;48.030;11.598;2023-04-25T06:24:08;9.00;99.90
16513;DHT22;8369;48.030;11.598;2023-04-25T06:26:34;8.90;99.90
16513;DHT22;8369;48.030;11.598;2023-04-25T06:29:03;8.90;99.90
16513;DHT22;8369;48.030;11.598;2023-04-25T06:31:35;8.90;99.90
16513;DHT22;8369;48.030;11.598;2023-04-25T06:34:01;8.90;99.90
16513;DHT22;8369;48.030;11.598;2023-04-25T06:36:30;9.00;99.90
16513;DHT22;8369;48.030;11.598;2023-04-25T06:38:56;9.00;99.90
16513;DHT22;8369;48.030;11.598;2023-04-25T06:41:23;9.10;99.90
16513;DHT22;8369;48.030;11.598;2023-04-25T06:43:49;9.00;99.90
16513;DHT22;8369;48.030;11.598;2023-04-25T06:46:15;9.00;99.90
16513;DHT22;8369;48.030;11.598;2023-04-25T06:48:42;9.10;99.90
16513;DHT22;8369;48.030;11.598;2023-04-25T06:51:08;9.10;99.90
16513;DHT22;8369;48.030;11.598;2023-04-25T06:53:34;9.10;99.90
16513;DHT22;8369;48.030;11.598;2023-04-25T06:56:00;9.10;99.90
16513;DHT22;8369;48.030;11.598;2023-04-25T06:58:26;9.00;99.90
16513;DHT22;8369;48.030;11.598;2023-04-25T07:00:52;8.90;99.90
16513;DHT22;8369;48.030;11.598;2023-04-25T07:03:21;8.90;99.90
16513;DHT22;8369;48.030;11.598;2023-04-25T07:05:52;8.80;99.90
16513;DHT22;8369;48.030;11.598;2023-04-25T07:08:18;8.80;99.90
16513;DHT22;8369;48.030;11.598;2023-04-25T07:10:43;8.70;99.90
16513;DHT22;8369;48.030;11.598;2023-04-25T07:13:11;8.70;99.90
16513;DHT22;8369;48.030;11.598;2023-04-25T07:15:38;8.70;99.90
16513;DHT22;8369;48.030;11.598;2023-04-25T07:18:04;8.80;99.90
16513;DHT22;8369;48.030;11.598;2023-04-25T07:20:32;8.80;99.90
16513;DHT22;8369;48.030;11.598;2023-04-25T07:22:58;8.80;99.90
16513;DHT22;8369;48.030;11.598;2023-04-25T07:25:24;8.90;99.90
16513;DHT22;8369;48.030;11.598;2023-04-25T07:27:50;8.90;99.90
16513;DHT22;8369;48.030;11.598;2023-04-25T07:30:18;8.90;99.90
16513;DHT22;8369;48.030;11.598;2023-04-25T07:33:04;9.00;99.90
16513;DHT22;8369;48.030;11.598;2023-04-25T07:35:41;9.10;99.90
16513;DHT22;8369;48.030;11.598;2023-04-25T07:38:10;9.10;99.90
16513;DHT22;8369;48.030;11.598;2023-04-25T07:40:36;9.20;99.90
16513;DHT22;8369;48.030;11.598;2023-04-25T07:43:05;9.20;99.90
16513;DHT22;8369;48.030;11.598;2023-04-25T07:45:38;9.40;99.90
16513;DHT22;8369;48.030;11.598;2023-04-25T07:48:04;9.60;99.90
16513;DHT22;8369;48.030;11.598;2023-04-25T07:50:30;9.70;99.90
16513;DHT22;8369;48.030;11.598;2023-04-25T07:52:59;10.00;99.90
16513;DHT22;8369;48.030;11.598;2023-04-25T07:55:25;10.10;99.90
16513;DHT22;8369;48.030;11.598;2023-04-25T07:57:52;10.30;99.90
16513;DHT22;8369;48.030;11.598;2023-04-25T08:00:18;10.50;99.90
16513;DHT22;8369;48.030;11.598;2023-04-25T08:02:46;10.60;99.90
16513;DHT22;8369;48.030;11.598;2023-04-25T08:05:12;10.70;99.90
16513;DHT22;8369;48.030;11.598;2023-04-25T08:07:40;10.70;99.90
16513;DHT22;8369;48.030;11.598;2023-04-25T08:10:07;10.70;99.90
16513;DHT22;8369;48.030;11.598;2023-04-25T08:12:33;10.80;99.90
16513;DHT22;8369;48.030;11.598;2023-04-25T08:14:59;10.90;99.90
16513;DHT22;8369;48.030;11.598;2023-04-25T08:17:25;10.90;99.90
16513;DHT22;8369;48.030;11.598;2023-04-25T08:19:51;10.90;99.90
16513;DHT22;8369;48.030;11.598;2023-04-25T08:22:17;11.10;99.90
16513;DHT22;8369;48.030;11.598;2023-04-25T08:24:43;11.00;99.90
16513;DHT22;8369;48.030;11.598;2023-04-25T08:27:09;11.00;99.90
16513;DHT22;8369;48.030;11.598;2023-04-25T08:29:35;11.00;99.90
16513;DHT22;8369;48.030;11.598;2023-04-25T08:32:01;11.10;99.90
16513;DHT22;8369;48.030;11.598;2023-04-25T08:34:27;11.20;99.90
16513;DHT22;8369;48.030;11.598;2023-04-25T08:37:02;11.30;99.90
16513;DHT22;8369;48.030;11.598;2023-04-25T08:39:30;11.40;99.90
16513;DHT22;8369;48.030;11.598;2023-04-25T08:41:56;11.30;99.90
16513;DHT22;8369;48.030;11.598;2023-04-25T08:44:23;11.30;99.90
16513;DHT22;8369;48.030;11.598;2023-04-25T08:46:51;11.20;99.90
16513;DHT22;8369;48.030;11.598;2023-04-25T08:49:18;11.10;99.90
16513;DHT22;8369;48.030;11.598;2023-04-25T08:51:50;11.00;99.90
16513;DHT22;8369;48.030;11.598;2023-04-25T08:54:20;10.80;99.90
16513;DHT22;8369;48.030;11.598;2023-04-25T08:56:49;10.70;99.90
16513;DHT22;8369;48.030;11.598;2023-04-25T08:59:15;10.80;99.90
16513;DHT22;8369;48.030;11.598;2023-04-25T09:01:41;10.80;99.90
16513;DHT22;8369;48.030;11.598;2023-04-25T09:04:07;10.90;99.90
16513;DHT22;8369;48.030;11.598;2023-04-25T09:06:33;11.10;99.90
16513;DHT22;8369;48.030;11.598;2023-04-25T09:09:04;11.40;99.90
16513;DHT22;8369;48.030;11.598;2023-04-25T09:11:35;11.50;99.90
16513;DHT22;8369;48.030;11.598;2023-04-25T09:16:57;11.50;99.90
16513;DHT22;8369;48.030;11.598;2023-04-25T09:19:34;11.40;99.90
16513;DHT22;8369;48.030;11.598;2023-04-25T09:22:03;11.30;99.90
16513;DHT22;8369;48.030;11.598;2023-04-25T09:26:59;11.40;99.90
16513;DHT22;8369;48.030;11.598;2023-04-25T09:29:31;11.40;99.90
16513;DHT22;8369;48.030;11.598;2023-04-25T09:32:20;11.30;99.90
16513;DHT22;8369;48.030;11.598;2023-04-25T09:37:20;11.30;99.90
16513;DHT22;8369;48.030;11.598;2023-04-25T09:39:48;11.10;99.90
16513;DHT22;8369;48.030;11.598;2023-04-25T09:42:15;11.00;99.90
16513;DHT22;8369;48.030;11.598;2023-04-25T09:44:43;10.90;99.90
16513;DHT22;8369;48.030;11.598;2023-04-25T09:47:11;10.90;99.90
16513;DHT22;8369;48.030;11.598;2023-04-25T09:49:43;10.90;99.90
16513;DHT22;8369;48.030;11.598;2023-04-25T09:52:14;10.90;99.90
16513;DHT22;8369;48.030;11.598;2023-04-25T09:54:42;10.90;99.90
16513;DHT22;8369;48.030;11.598;2023-04-25T09:57:20;11.00;99.90
16513;DHT22;8369;48.030;11.598;2023-04-25T09:59:53;11.10;99.90
16513;DHT22;8369;48.030;11.598;2023-04-25T10:02:25;11.10;99.90
16513;DHT22;8369;48.030;11.598;2023-04-25T10:04:53;11.10;99.90
16513;DHT22;8369;48.030;11.598;2023-04-25T10:07:23;11.10;99.90
16513;DHT22;8369;48.030;11.598;2023-04-25T10:10:03;11.30;99.90
16513;DHT22;8369;48.030;11.598;2023-04-25T10:12:35;11.30;99.90
16513;DHT22;8369;48.030;11.598;2023-04-25T10:15:02;11.30;99.90
16513;DHT22;8369;48.030;11.598;2023-04-25T10:17:28;11.40;99.90
16513;DHT22;8369;48.030;11.598;2023-04-25T10:19:55;11.40;99.90
16513;DHT22;8369;48.030;11.598;2023-04-25T10:22:29;11.40;99.90
16513;DHT22;8369;48.030;11.598;2023-04-25T10:24:57;11.50;99.90
16513;DHT22;8369;48.030;11.598;2023-04-25T10:27:23;11.50;99.90
16513;DHT22;8369;48.030;11.598;2023-04-25T10:30:08;11.60;99.90
16513;DHT22;8369;48.030;11.598;2023-04-25T10:32:38;11.70;98.60
16513;DHT22;8369;48.030;11.598;2023-04-25T10:35:19;11.70;99.40
16513;DHT22;8369;48.030;11.598;2023-04-25T10:38:04;11.80;98.60
16513;DHT22;8369;48.030;11.598;2023-04-25T10:40:35;11.70;98.40
16513;DHT22;8369;48.030;11.598;2023-04-25T10:46:00;11.70;99.70
16513;DHT22;8369;48.030;11.598;2023-04-25T10:48:27;11.80;99.60
16513;DHT22;8369;48.030;11.598;2023-04-25T10:51:10;11.90;99.90
16513;DHT22;8369;48.030;11.598;2023-04-25T10:53:37;12.00;99.70
16513;DHT22;8369;48.030;11.598;2023-04-25T10:56:19;11.90;99.90
16513;DHT22;8369;48.030;11.598;2023-04-25T10:58:46;11.80;99.90
16513;DHT22;8369;48.030;11.598;2023-04-25T11:01:13;11.80;95.80
16513;DHT22;8369;48.030;11.598;2023-04-25T11:03:41;11.80;95.40
16513;DHT22;8369;48.030;11.598;2023-04-25T11:09:19;11.80;95.90
16513;DHT22;8369;48.030;11.598;2023-04-25T11:11:55;11.70;95.90
16513;DHT22;8369;48.030;11.598;2023-04-25T11:14:22;11.50;98.20
16513;DHT22;8369;48.030;11.598;2023-04-25T11:16:59;11.40;99.90
16513;DHT22;8369;48.030;11.598;2023-04-25T11:19:26;11.10;99.90
16513;DHT22;8369;48.030;11.598;2023-04-25T11:22:00;10.70;99.90
16513;DHT22;8369;48.030;11.598;2023-04-25T11:24:29;10.60;99.90
16513;DHT22;8369;48.030;11.598;2023-04-25T11:26:56;10.20;99.90
16513;DHT22;8369;48.030;11.598;2023-04-25T11:29:23;10.00;99.90
16513;DHT22;8369;48.030;11.598;2023-04-25T11:31:53;9.70;99.90
16513;DHT22;8369;48.030;11.598;2023-04-25T11:34:19;9.60;99.90
16513;DHT22;8369;48.030;11.598;2023-04-25T11:36:45;9.40;99.90
16513;DHT22;8369;48.030;11.598;2023-04-25T11:39:12;9.10;99.90
16513;DHT22;8369;48.030;11.598;2023-04-25T11:41:46;9.00;99.90
16513;DHT22;8369;48.030;11.598;2023-04-25T11:44:30;8.90;99.90
16513;DHT22;8369;48.030;11.598;2023-04-25T11:47:02;8.70;99.90
16513;DHT22;8369;48.030;11.598;2023-04-25T11:49:31;8.60;99.90
16513;DHT22;8369;48.030;11.598;2023-04-25T11:52:00;8.40;99.90
16513;DHT22;8369;48.030;11.598;2023-04-25T11:54:28;8.30;99.90
16513;DHT22;8369;48.030;11.598;2023-04-25T11:56:55;8.30;99.90
16513;DHT22;8369;48.030;11.598;2023-04-25T11:59:24;8.20;99.90
16513;DHT22;8369;48.030;11.598;2023-04-25T12:01:51;8.40;99.90
16513;DHT22;8369;48.030;11.598;2023-04-25T12:04:21;8.30;99.90
16513;DHT22;8369;48.030;11.598;2023-04-25T12:06:57;8.30;99.90
16513;DHT22;8369;48.030;11.598;2023-04-25T12:09:31;8.20;99.90
16513;DHT22;8369;48.030;11.598;2023-04-25T12:11:58;8.20;99.90
16513;DHT22;8369;48.030;11.598;2023-04-25T12:14:29;8.40;99.90
16513;DHT22;8369;48.030;11.598;2023-04-25T12:17:00;8.40;99.90
16513;DHT22;8369;48.030;11.598;2023-04-25T12:19:31;8.50;99.90
16513;DHT22;8369;48.030;11.598;2023-04-25T12:22:00;8.60;99.90
16513;DHT22;8369;48.030;11.598;2023-04-25T12:24:27;8.70;99.90
16513;DHT22;8369;48.030;11.598;2023-04-25T12:27:00;8.70;99.90
16513;DHT22;8369;48.030;11.598;2023-04-25T12:29:28;8.80;99.90
16513;DHT22;8369;48.030;11.598;2023-04-25T12:31:57;8.80;99.90
16513;DHT22;8369;48.030;11.598;2023-04-25T12:34:27;8.90;99.90
16513;DHT22;8369;48.030;11.598;2023-04-25T12:36:54;9.00;99.90
16513;DHT22;8369;48.030;11.598;2023-04-25T12:39:24;9.10;99.90
16513;DHT22;8369;48.030;11.598;2023-04-25T12:41:51;9.10;99.90
16513;DHT22;8369;48.030;11.598;2023-04-25T12:44:21;9.10;99.90
16513;DHT22;8369;48.030;11.598;2023-04-25T12:46:47;9.40;99.90
16513;DHT22;8369;48.030;11.598;2023-04-25T12:49:14;9.50;99.90
16513;DHT22;8369;48.030;11.598;2023-04-25T12:51:40;9.50;99.90
16513;DHT22;8369;48.030;11.598;2023-04-25T12:54:07;9.50;99.90
16513;DHT22;8369;48.030;11.598;2023-04-25T12:56:34;9.60;99.90
16513;DHT22;8369;48.030;11.598;2023-04-25T12:59:01;9.60;99.90
16513;DHT22;8369;48.030;11.598;2023-04-25T13:01:29;9.60;99.90
16513;DHT22;8369;48.030;11.598;2023-04-25T13:03:55;9.60;99.90
16513;DHT22;8369;48.030;11.598;2023-04-25T13:06:21;9.50;99.90
16513;DHT22;8369;48.030;11.598;2023-04-25T13:08:47;9.50;99.90
16513;DHT22;8369;48.030;11.598;2023-04-25T13:11:13;9.50;99.90
16513;DHT22;8369;48.030;11.598;2023-04-25T13:13:46;9.50;99.90
16513;DHT22;8369;48.030;11.598;2023-04-25T13:16:12;9.50;99.90
16513;DHT22;8369;48.030;11.598;2023-04-25T13:18:41;9.50;99.90
16513;DHT22;8369;48.030;11.598;2023-04-25T13:21:11;9.50;99.90
16513;DHT22;8369;48.030;11.598;2023-04-25T13:23:38;9.50;99.90
16513;DHT22;8369;48.030;11.598;2023-04-25T13:26:04;9.50;99.90
16513;DHT22;8369;48.030;11.598;2023-04-25T13:28:30;9.50;99.90
16513;DHT22;8369;48.030;11.598;2023-04-25T13:30:56;9.50;99.90
16513;DHT22;8369;48.030;11.598;2023-04-25T13:33:22;9.40;99.90
16513;DHT22;8369;48.030;11.598;2023-04-25T13:35:48;9.60;99.90
16513;DHT22;8369;48.030;11.598;2023-04-25T13:38:23;9.50;99.90
16513;DHT22;8369;48.030;11.598;2023-04-25T13:40:49;9.40;99.90
16513;DHT22;8369;48.030;11.598;2023-04-25T13:43:20;9.40;99.90
16513;DHT22;8369;48.030;11.598;2023-04-25T13:45:50;9.30;99.90
16513;DHT22;8369;48.030;11.598;2023-04-25T13:48:17;9.30;99.90
16513;DHT22;8369;48.030;11.598;2023-04-25T13:50:43;9.30;99.90
16513;DHT22;8369;48.030;11.598;2023-04-25T13:53:09;9.30;99.90
16513;DHT22;8369;48.030;11.598;2023-04-25T13:55:35;9.30;99.90
16513;DHT22;8369;48.030;11.598;2023-04-25T13:58:04;9.30;99.90
16513;DHT22;8369;48.030;11.598;2023-04-25T14:00:37;9.30;99.90
16513;DHT22;8369;48.030;11.598;2023-04-25T14:03:04;9.30;99.90
16513;DHT22;8369;48.030;11.598;2023-04-25T14:05:33;9.20;99.90
16513;DHT22;8369;48.030;11.598;2023-04-25T14:08:05;9.10;99.90
16513;DHT22;8369;48.030;11.598;2023-04-25T14:10:31;9.00;99.90
16513;DHT22;8369;48.030;11.598;2023-04-25T14:12:57;9.00;99.90
16513;DHT22;8369;48.030;11.598;2023-04-25T14:15:26;9.00;99.90
16513;DHT22;8369;48.030;11.598;2023-04-25T14:17:55;9.00;99.90
16513;DHT22;8369;48.030;11.598;2023-04-25T14:20:22;8.90;99.90
16513;DHT22;8369;48.030;11.598;2023-04-25T14:22:50;9.00;99.90
16513;DHT22;8369;48.030;11.598;2023-04-25T14:25:17;8.90;99.90
16513;DHT22;8369;48.030;11.598;2023-04-25T14:27:44;9.00;99.90
16513;DHT22;8369;48.030;11.598;2023-04-25T14:30:17;9.10;99.90
16513;DHT22;8369;48.030;11.598;2023-04-25T14:32:43;9.10;99.90
16513;DHT22;8369;48.030;11.598;2023-04-25T14:35:11;9.20;99.90
16513;DHT22;8369;48.030;11.598;2023-04-25T14:37:37;9.20;99.90
16513;DHT22;8369;48.030;11.598;2023-04-25T14:40:05;9.20;99.90
16513;DHT22;8369;48.030;11.598;2023-04-25T14:42:33;9.30;99.90
16513;DHT22;8369;48.030;11.598;2023-04-25T14:44:59;9.40;99.90
16513;DHT22;8369;48.030;11.598;2023-04-25T14:47:26;9.40;99.90
16513;DHT22;8369;48.030;11.598;2023-04-25T14:49:57;9.40;99.90
16513;DHT22;8369;48.030;11.598;2023-04-25T14:52:24;9.40;99.90
16513;DHT22;8369;48.030;11.598;2023-04-25T14:54:51;9.50;99.90
16513;DHT22;8369;48.030;11.598;2023-04-25T14:57:17;9.50;99.90
16513;DHT22;8369;48.030;11.598;2023-04-25T14:59:43;9.50;99.90
16513;DHT22;8369;48.030;11.598;2023-04-25T15:02:09;9.50;99.90
16513;DHT22;8369;48.030;11.598;2023-04-25T15:04:35;9.60;99.90
16513;DHT22;8369;48.030;11.598;2023-04-25T15:07:03;9.60;99.90
16513;DHT22;8369;48.030;11.598;2023-04-25T15:09:30;9.60;99.90
16513;DHT22;8369;48.030;11.598;2023-04-25T15:11:57;9.60;99.90
16513;DHT22;8369;48.030;11.598;2023-04-25T15:14:24;9.60;99.90
16513;DHT22;8369;48.030;11.598;2023-04-25T15:16:51;9.60;99.90
16513;DHT22;8369;48.030;11.598;2023-04-25T15:19:19;9.60;99.90
16513;DHT22;8369;48.030;11.598;2023-04-25T15:21:47;9.60;99.90
16513;DHT22;8369;48.030;11.598;2023-04-25T15:24:13;9.60;99.90
16513;DHT22;8369;48.030;11.598;2023-04-25T15:26:41;9.50;99.90
16513;DHT22;8369;48.030;11.598;2023-04-25T15:29:08;9.50;99.90
16513;DHT22;8369;48.030;11.598;2023-04-25T15:31:34;9.40;99.90
16513;DHT22;8369;48.030;11.598;2023-04-25T15:34:01;9.40;99.90
16513;DHT22;8369;48.030;11.598;2023-04-25T15:36:28;9.50;99.90
16513;DHT22;8369;48.030;11.598;2023-04-25T15:38:54;9.40;99.90
16513;DHT22;8369;48.030;11.598;2023-04-25T15:41:21;9.40;99.90
16513;DHT22;8369;48.030;11.598;2023-04-25T15:43:48;9.30;99.90
16513;DHT22;8369;48.030;11.598;2023-04-25T15:46:14;9.20;99.90
16513;DHT22;8369;48.030;11.598;2023-04-25T15:48:41;9.10;99.90
16513;DHT22;8369;48.030;11.598;2023-04-25T15:51:08;9.00;99.90
16513;DHT22;8369;48.030;11.598;2023-04-25T15:53:35;9.00;99.90
16513;DHT22;8369;48.030;11.598;2023-04-25T15:56:01;9.10;99.90
16513;DHT22;8369;48.030;11.598;2023-04-25T15:58:29;9.00;99.90
16513;DHT22;8369;48.030;11.598;2023-04-25T16:00:56;9.00;99.90
16513;DHT22;8369;48.030;11.598;2023-04-25T16:03:22;9.00;99.90
16513;DHT22;8369;48.030;11.598;2023-04-25T16:05:51;9.10;99.90
16513;DHT22;8369;48.030;11.598;2023-04-25T16:08:18;9.10;99.90
16513;DHT22;8369;48.030;11.598;2023-04-25T16:10:44;9.10;99.90
16513;DHT22;8369;48.030;11.598;2023-04-25T16:13:10;9.10;99.90
16513;DHT22;8369;48.030;11.598;2023-04-25T16:15:39;9.20;99.90
16513;DHT22;8369;48.030;11.598;2023-04-25T16:18:05;9.20;99.90
16513;DHT22;8369;48.030;11.598;2023-04-25T16:20:33;9.20;99.90
16513;DHT22;8369;48.030;11.598;2023-04-25T16:22:59;9.20;99.90
16513;DHT22;8369;48.030;11.598;2023-04-25T16:25:25;9.10;99.90